Terminal Aerodrome Forecast
Issued by NWS Louisville, KY

Home | Current Version | Previous Version | Text Only | Print | Product List | Glossary Off
Versions: 1 2 3 4 5 6 7 8 9 10 11 12 13 14 15 16 17 18 19 20

000
FTUS43 KLMK 211700
TAFSDF
TAF
KSDF 211732Z 2118/2224 33009KT P6SM BKN050
     FM220000 01006KT P6SM SCT040
     FM220400 01006KT P6SM SKC=

USA.gov is the U.S. government's official web portal to all federal, state and local government web resources and services.